sensor_id;sensor_type;location;lat;lon;timestamp;temperature;humidity
7844;DHT22;3967;48.702;9.326;2022-12-29T00:00:54;7.40;98.30
7844;DHT22;3967;48.702;9.326;2022-12-29T00:03:20;7.50;98.30
7844;DHT22;3967;48.702;9.326;2022-12-29T00:05:54;7.60;98.10
7844;DHT22;3967;48.702;9.326;2022-12-29T00:08:21;7.60;98.10
7844;DHT22;3967;48.702;9.326;2022-12-29T00:11:14;7.60;98.10
7844;DHT22;3967;48.702;9.326;2022-12-29T00:13:41;7.60;97.90
7844;DHT22;3967;48.702;9.326;2022-12-29T00:16:28;7.60;98.10
7844;DHT22;3967;48.702;9.326;2022-12-29T00:18:55;7.70;98.00
7844;DHT22;3967;48.702;9.326;2022-12-29T00:21:23;7.80;97.90
7844;DHT22;3967;48.702;9.326;2022-12-29T00:24:19;7.80;97.70
7844;DHT22;3967;48.702;9.326;2022-12-29T00:27:13;7.90;97.40
7844;DHT22;3967;48.702;9.326;2022-12-29T00:29:58;7.90;97.30
7844;DHT22;3967;48.702;9.326;2022-12-29T00:32:44;7.90;97.30
7844;DHT22;3967;48.702;9.326;2022-12-29T00:35:33;7.90;97.10
7844;DHT22;3967;48.702;9.326;2022-12-29T00:38:04;8.00;96.80
7844;DHT22;3967;48.702;9.326;2022-12-29T00:40:50;8.00;96.70
7844;DHT22;3967;48.702;9.326;2022-12-29T00:43:36;8.10;96.50
7844;DHT22;3967;48.702;9.326;2022-12-29T00:46:21;8.10;96.40
7844;DHT22;3967;48.702;9.326;2022-12-29T00:48:48;8.20;96.30
7844;DHT22;3967;48.702;9.326;2022-12-29T00:51:33;8.10;96.20
7844;DHT22;3967;48.702;9.326;2022-12-29T00:54:00;8.20;96.00
7844;DHT22;3967;48.702;9.326;2022-12-29T00:56:27;8.30;95.90
7844;DHT22;3967;48.702;9.326;2022-12-29T00:58:53;8.20;95.80
7844;DHT22;3967;48.702;9.326;2022-12-29T01:01:20;8.20;95.90
7844;DHT22;3967;48.702;9.326;2022-12-29T01:03:47;8.20;95.90
7844;DHT22;3967;48.702;9.326;2022-12-29T01:06:14;8.10;95.80
7844;DHT22;3967;48.702;9.326;2022-12-29T01:08:41;8.10;96.00
7844;DHT22;3967;48.702;9.326;2022-12-29T01:11:10;8.20;95.80
7844;DHT22;3967;48.702;9.326;2022-12-29T01:13:37;8.20;95.80
7844;DHT22;3967;48.702;9.326;2022-12-29T01:16:05;8.20;95.60
7844;DHT22;3967;48.702;9.326;2022-12-29T01:18:32;8.20;95.90
7844;DHT22;3967;48.702;9.326;2022-12-29T01:21:04;8.20;95.70
7844;DHT22;3967;48.702;9.326;2022-12-29T01:23:32;8.20;95.60
7844;DHT22;3967;48.702;9.326;2022-12-29T01:26:09;8.20;95.80
7844;DHT22;3967;48.702;9.326;2022-12-29T01:28:35;8.20;95.80
7844;DHT22;3967;48.702;9.326;2022-12-29T01:31:07;8.20;95.70
7844;DHT22;3967;48.702;9.326;2022-12-29T01:33:34;8.20;95.70
7844;DHT22;3967;48.702;9.326;2022-12-29T01:36:06;8.20;95.90
7844;DHT22;3967;48.702;9.326;2022-12-29T01:38:34;8.20;96.00
7844;DHT22;3967;48.702;9.326;2022-12-29T01:41:01;8.20;96.00
7844;DHT22;3967;48.702;9.326;2022-12-29T01:46:19;8.30;95.80
7844;DHT22;3967;48.702;9.326;2022-12-29T01:48:48;8.30;95.90
7844;DHT22;3967;48.702;9.326;2022-12-29T01:51:16;8.30;96.00
7844;DHT22;3967;48.702;9.326;2022-12-29T01:53:45;8.40;95.90
7844;DHT22;3967;48.702;9.326;2022-12-29T01:56:15;8.40;95.90
7844;DHT22;3967;48.702;9.326;2022-12-29T01:58:45;8.40;95.90
7844;DHT22;3967;48.702;9.326;2022-12-29T02:01:16;8.40;95.80
7844;DHT22;3967;48.702;9.326;2022-12-29T02:03:45;8.40;95.70
7844;DHT22;3967;48.702;9.326;2022-12-29T02:06:15;8.40;95.60
7844;DHT22;3967;48.702;9.326;2022-12-29T02:08:46;8.40;95.60
7844;DHT22;3967;48.702;9.326;2022-12-29T02:11:13;8.40;95.60
7844;DHT22;3967;48.702;9.326;2022-12-29T02:13:42;8.50;95.50
7844;DHT22;3967;48.702;9.326;2022-12-29T02:16:13;8.50;95.40
7844;DHT22;3967;48.702;9.326;2022-12-29T02:30:42;8.60;95.40
7844;DHT22;3967;48.702;9.326;2022-12-29T02:36:37;8.70;95.20
7844;DHT22;3967;48.702;9.326;2022-12-29T02:44:34;8.90;94.50
7844;DHT22;3967;48.702;9.326;2022-12-29T02:50:15;9.00;94.50
7844;DHT22;3967;48.702;9.326;2022-12-29T02:52:57;9.00;94.10
7844;DHT22;3967;48.702;9.326;2022-12-29T02:55:25;9.10;93.80
7844;DHT22;3967;48.702;9.326;2022-12-29T02:58:24;9.20;93.60
7844;DHT22;3967;48.702;9.326;2022-12-29T03:03:32;9.30;93.10
7844;DHT22;3967;48.702;9.326;2022-12-29T03:06:08;9.40;93.10
7844;DHT22;3967;48.702;9.326;2022-12-29T03:11:15;9.40;93.00
7844;DHT22;3967;48.702;9.326;2022-12-29T03:14:22;9.50;92.80
7844;DHT22;3967;48.702;9.326;2022-12-29T03:17:27;9.50;92.50
7844;DHT22;3967;48.702;9.326;2022-12-29T03:20:01;9.60;92.20
7844;DHT22;3967;48.702;9.326;2022-12-29T03:22:31;9.60;92.20
7844;DHT22;3967;48.702;9.326;2022-12-29T03:27:41;9.70;91.90
7844;DHT22;3967;48.702;9.326;2022-12-29T03:30:09;9.80;91.70
7844;DHT22;3967;48.702;9.326;2022-12-29T03:32:42;9.80;91.60
7844;DHT22;3967;48.702;9.326;2022-12-29T03:35:12;9.80;91.50
7844;DHT22;3967;48.702;9.326;2022-12-29T03:40:21;9.90;91.20
7844;DHT22;3967;48.702;9.326;2022-12-29T03:42:50;9.80;91.10
7844;DHT22;3967;48.702;9.326;2022-12-29T03:45:17;9.80;91.10
7844;DHT22;3967;48.702;9.326;2022-12-29T03:47:45;9.90;91.20
7844;DHT22;3967;48.702;9.326;2022-12-29T03:50:12;9.90;91.10
7844;DHT22;3967;48.702;9.326;2022-12-29T03:52:39;9.90;91.10
7844;DHT22;3967;48.702;9.326;2022-12-29T03:55:06;10.00;90.50
7844;DHT22;3967;48.702;9.326;2022-12-29T03:57:33;10.00;90.30
7844;DHT22;3967;48.702;9.326;2022-12-29T04:00:00;10.00;90.20
7844;DHT22;3967;48.702;9.326;2022-12-29T04:02:26;10.10;90.10
7844;DHT22;3967;48.702;9.326;2022-12-29T04:04:53;10.10;90.10
7844;DHT22;3967;48.702;9.326;2022-12-29T04:07:20;10.10;90.10
7844;DHT22;3967;48.702;9.326;2022-12-29T04:09:47;10.10;90.10
7844;DHT22;3967;48.702;9.326;2022-12-29T04:12:13;10.10;90.20
7844;DHT22;3967;48.702;9.326;2022-12-29T04:14:41;10.00;90.10
7844;DHT22;3967;48.702;9.326;2022-12-29T04:17:07;10.00;90.20
7844;DHT22;3967;48.702;9.326;2022-12-29T04:19:34;10.00;90.30
7844;DHT22;3967;48.702;9.326;2022-12-29T04:22:01;10.10;90.30
7844;DHT22;3967;48.702;9.326;2022-12-29T04:24:27;10.00;90.20
7844;DHT22;3967;48.702;9.326;2022-12-29T04:26:54;10.00;90.10
7844;DHT22;3967;48.702;9.326;2022-12-29T04:29:21;10.00;90.10
7844;DHT22;3967;48.702;9.326;2022-12-29T04:31:48;9.90;91.10
7844;DHT22;3967;48.702;9.326;2022-12-29T04:34:14;10.00;90.50
7844;DHT22;3967;48.702;9.326;2022-12-29T04:36:41;10.10;92.20
7844;DHT22;3967;48.702;9.326;2022-12-29T04:39:08;10.50;92.20
7844;DHT22;3967;48.702;9.326;2022-12-29T04:41:35;10.40;91.80
7844;DHT22;3967;48.702;9.326;2022-12-29T04:44:01;10.40;91.40
7844;DHT22;3967;48.702;9.326;2022-12-29T04:46:28;10.00;90.30
7844;DHT22;3967;48.702;9.326;2022-12-29T04:48:55;10.00;90.50
7844;DHT22;3967;48.702;9.326;2022-12-29T04:51:22;10.00;90.60
7844;DHT22;3967;48.702;9.326;2022-12-29T04:53:48;9.90;91.00
7844;DHT22;3967;48.702;9.326;2022-12-29T04:56:15;10.00;90.50
7844;DHT22;3967;48.702;9.326;2022-12-29T04:58:43;9.90;90.90
7844;DHT22;3967;48.702;9.326;2022-12-29T05:01:10;10.00;90.40
7844;DHT22;3967;48.702;9.326;2022-12-29T05:03:37;9.90;90.80
7844;DHT22;3967;48.702;9.326;2022-12-29T05:06:04;9.90;90.70
7844;DHT22;3967;48.702;9.326;2022-12-29T05:08:30;9.90;90.70
7844;DHT22;3967;48.702;9.326;2022-12-29T05:10:57;9.80;90.60
7844;DHT22;3967;48.702;9.326;2022-12-29T05:13:24;9.90;90.50
7844;DHT22;3967;48.702;9.326;2022-12-29T05:15:52;9.80;90.50
7844;DHT22;3967;48.702;9.326;2022-12-29T05:18:19;9.80;90.60
7844;DHT22;3967;48.702;9.326;2022-12-29T05:20:47;9.80;90.70
7844;DHT22;3967;48.702;9.326;2022-12-29T05:23:14;9.70;90.70
7844;DHT22;3967;48.702;9.326;2022-12-29T05:25:43;9.80;90.80
7844;DHT22;3967;48.702;9.326;2022-12-29T05:28:11;9.80;90.70
7844;DHT22;3967;48.702;9.326;2022-12-29T05:30:38;9.80;90.90
7844;DHT22;3967;48.702;9.326;2022-12-29T05:33:05;9.90;90.80
7844;DHT22;3967;48.702;9.326;2022-12-29T05:35:33;9.80;90.70
7844;DHT22;3967;48.702;9.326;2022-12-29T05:37:59;9.90;90.60
7844;DHT22;3967;48.702;9.326;2022-12-29T05:40:26;9.80;90.60
7844;DHT22;3967;48.702;9.326;2022-12-29T05:42:53;9.70;90.70
7844;DHT22;3967;48.702;9.326;2022-12-29T05:45:19;9.80;90.80
7844;DHT22;3967;48.702;9.326;2022-12-29T05:47:46;9.80;90.80
7844;DHT22;3967;48.702;9.326;2022-12-29T05:50:13;9.70;90.70
7844;DHT22;3967;48.702;9.326;2022-12-29T05:52:39;9.80;90.70
7844;DHT22;3967;48.702;9.326;2022-12-29T05:55:06;9.80;90.60
7844;DHT22;3967;48.702;9.326;2022-12-29T05:57:33;9.80;90.60
7844;DHT22;3967;48.702;9.326;2022-12-29T06:00:00;9.80;90.60
7844;DHT22;3967;48.702;9.326;2022-12-29T06:02:27;9.90;90.60
7844;DHT22;3967;48.702;9.326;2022-12-29T06:04:54;9.90;90.50
7844;DHT22;3967;48.702;9.326;2022-12-29T06:07:20;9.90;90.60
7844;DHT22;3967;48.702;9.326;2022-12-29T06:09:47;9.90;90.70
7844;DHT22;3967;48.702;9.326;2022-12-29T06:12:14;9.80;90.70
7844;DHT22;3967;48.702;9.326;2022-12-29T06:14:41;9.80;90.70
7844;DHT22;3967;48.702;9.326;2022-12-29T06:17:07;9.90;90.60
7844;DHT22;3967;48.702;9.326;2022-12-29T06:19:34;10.00;90.10
7844;DHT22;3967;48.702;9.326;2022-12-29T06:22:01;9.90;90.60
7844;DHT22;3967;48.702;9.326;2022-12-29T06:24:28;9.90;90.70
7844;DHT22;3967;48.702;9.326;2022-12-29T06:26:55;9.90;90.60
7844;DHT22;3967;48.702;9.326;2022-12-29T06:29:21;9.90;90.70
7844;DHT22;3967;48.702;9.326;2022-12-29T06:31:48;9.90;90.70
7844;DHT22;3967;48.702;9.326;2022-12-29T06:34:16;9.90;90.70
7844;DHT22;3967;48.702;9.326;2022-12-29T06:36:42;10.00;90.30
7844;DHT22;3967;48.702;9.326;2022-12-29T06:39:10;9.80;90.80
7844;DHT22;3967;48.702;9.326;2022-12-29T06:41:37;9.90;91.10
7844;DHT22;3967;48.702;9.326;2022-12-29T06:44:04;9.90;91.20
7844;DHT22;3967;48.702;9.326;2022-12-29T06:46:31;9.90;91.20
7844;DHT22;3967;48.702;9.326;2022-12-29T06:48:57;9.90;91.50
7844;DHT22;3967;48.702;9.326;2022-12-29T06:51:24;9.90;91.40
7844;DHT22;3967;48.702;9.326;2022-12-29T06:53:51;10.00;91.00
7844;DHT22;3967;48.702;9.326;2022-12-29T06:56:17;10.00;91.00
7844;DHT22;3967;48.702;9.326;2022-12-29T06:58:44;10.00;91.10
7844;DHT22;3967;48.702;9.326;2022-12-29T07:01:11;10.00;91.30
7844;DHT22;3967;48.702;9.326;2022-12-29T07:03:38;10.00;91.20
7844;DHT22;3967;48.702;9.326;2022-12-29T07:06:07;10.00;91.30
7844;DHT22;3967;48.702;9.326;2022-12-29T07:08:33;10.10;91.30
7844;DHT22;3967;48.702;9.326;2022-12-29T07:11:00;10.10;91.30
7844;DHT22;3967;48.702;9.326;2022-12-29T07:13:28;10.00;91.50
7844;DHT22;3967;48.702;9.326;2022-12-29T07:15:55;10.00;91.50
7844;DHT22;3967;48.702;9.326;2022-12-29T07:18:21;10.10;91.40
7844;DHT22;3967;48.702;9.326;2022-12-29T07:20:48;10.10;91.40
7844;DHT22;3967;48.702;9.326;2022-12-29T07:23:15;10.10;91.40
7844;DHT22;3967;48.702;9.326;2022-12-29T07:25:41;10.20;91.40
7844;DHT22;3967;48.702;9.326;2022-12-29T07:28:08;10.20;91.50
7844;DHT22;3967;48.702;9.326;2022-12-29T07:30:36;10.20;91.40
7844;DHT22;3967;48.702;9.326;2022-12-29T07:33:04;10.20;91.40
7844;DHT22;3967;48.702;9.326;2022-12-29T07:35:30;10.20;91.70
7844;DHT22;3967;48.702;9.326;2022-12-29T07:37:57;10.20;91.40
7844;DHT22;3967;48.702;9.326;2022-12-29T07:40:24;10.30;91.50
7844;DHT22;3967;48.702;9.326;2022-12-29T07:42:50;10.30;91.40
7844;DHT22;3967;48.702;9.326;2022-12-29T07:45:17;10.30;91.40
7844;DHT22;3967;48.702;9.326;2022-12-29T07:47:47;10.40;91.50
7844;DHT22;3967;48.702;9.326;2022-12-29T07:50:14;10.40;91.50
7844;DHT22;3967;48.702;9.326;2022-12-29T07:52:41;10.40;91.60
7844;DHT22;3967;48.702;9.326;2022-12-29T07:55:08;10.40;91.60
7844;DHT22;3967;48.702;9.326;2022-12-29T07:57:35;10.40;91.60
7844;DHT22;3967;48.702;9.326;2022-12-29T08:00:03;10.40;91.60
7844;DHT22;3967;48.702;9.326;2022-12-29T08:02:30;10.50;91.70
7844;DHT22;3967;48.702;9.326;2022-12-29T08:04:57;10.60;91.50
7844;DHT22;3967;48.702;9.326;2022-12-29T08:07:23;10.60;91.50
7844;DHT22;3967;48.702;9.326;2022-12-29T08:09:50;10.60;91.30
7844;DHT22;3967;48.702;9.326;2022-12-29T08:12:17;10.70;91.50
7844;DHT22;3967;48.702;9.326;2022-12-29T08:14:44;10.70;91.30
7844;DHT22;3967;48.702;9.326;2022-12-29T08:17:11;10.70;91.40
7844;DHT22;3967;48.702;9.326;2022-12-29T08:19:38;10.80;91.40
7844;DHT22;3967;48.702;9.326;2022-12-29T08:22:05;10.80;91.30
7844;DHT22;3967;48.702;9.326;2022-12-29T08:24:31;10.80;91.30
7844;DHT22;3967;48.702;9.326;2022-12-29T08:26:58;10.90;91.30
7844;DHT22;3967;48.702;9.326;2022-12-29T08:29:34;10.90;91.20
7844;DHT22;3967;48.702;9.326;2022-12-29T08:32:01;10.90;91.20
7844;DHT22;3967;48.702;9.326;2022-12-29T08:34:28;11.00;91.20
7844;DHT22;3967;48.702;9.326;2022-12-29T08:36:54;11.00;91.10
7844;DHT22;3967;48.702;9.326;2022-12-29T08:39:22;11.10;90.90
7844;DHT22;3967;48.702;9.326;2022-12-29T08:41:48;11.10;90.90
7844;DHT22;3967;48.702;9.326;2022-12-29T08:44:15;11.20;90.80
7844;DHT22;3967;48.702;9.326;2022-12-29T08:46:42;11.20;90.70
7844;DHT22;3967;48.702;9.326;2022-12-29T08:49:09;11.20;90.70
7844;DHT22;3967;48.702;9.326;2022-12-29T08:51:35;11.30;90.40
7844;DHT22;3967;48.702;9.326;2022-12-29T08:54:02;11.40;90.20
7844;DHT22;3967;48.702;9.326;2022-12-29T08:56:29;11.40;90.20
7844;DHT22;3967;48.702;9.326;2022-12-29T08:58:56;11.40;90.10
7844;DHT22;3967;48.702;9.326;2022-12-29T09:01:23;11.40;90.10
7844;DHT22;3967;48.702;9.326;2022-12-29T09:03:50;11.40;89.40
7844;DHT22;3967;48.702;9.326;2022-12-29T09:06:36;11.40;89.90
7844;DHT22;3967;48.702;9.326;2022-12-29T09:09:06;11.40;89.60
7844;DHT22;3967;48.702;9.326;2022-12-29T09:11:33;11.40;89.80
7844;DHT22;3967;48.702;9.326;2022-12-29T09:14:00;11.40;89.10
7844;DHT22;3967;48.702;9.326;2022-12-29T09:16:26;11.40;89.00
7844;DHT22;3967;48.702;9.326;2022-12-29T09:18:56;11.50;88.80
7844;DHT22;3967;48.702;9.326;2022-12-29T09:21:23;11.50;88.70
7844;DHT22;3967;48.702;9.326;2022-12-29T09:23:50;11.50;88.90
7844;DHT22;3967;48.702;9.326;2022-12-29T09:26:16;11.60;88.80
7844;DHT22;3967;48.702;9.326;2022-12-29T09:28:43;11.60;88.40
7844;DHT22;3967;48.702;9.326;2022-12-29T09:31:10;11.60;88.40
7844;DHT22;3967;48.702;9.326;2022-12-29T09:33:37;11.60;88.60
7844;DHT22;3967;48.702;9.326;2022-12-29T09:36:04;11.60;88.80
7844;DHT22;3967;48.702;9.326;2022-12-29T09:38:31;11.60;88.80
7844;DHT22;3967;48.702;9.326;2022-12-29T09:41:20;11.60;88.80
7844;DHT22;3967;48.702;9.326;2022-12-29T09:46:27;11.70;88.80
7844;DHT22;3967;48.702;9.326;2022-12-29T09:49:13;11.80;88.70
7844;DHT22;3967;48.702;9.326;2022-12-29T09:51:46;11.80;89.20
7844;DHT22;3967;48.702;9.326;2022-12-29T09:54:38;11.80;89.30
7844;DHT22;3967;48.702;9.326;2022-12-29T09:57:16;11.90;89.70
7844;DHT22;3967;48.702;9.326;2022-12-29T09:59:45;12.00;90.00
7844;DHT22;3967;48.702;9.326;2022-12-29T10:02:38;12.00;89.90
7844;DHT22;3967;48.702;9.326;2022-12-29T10:05:19;12.00;90.00
7844;DHT22;3967;48.702;9.326;2022-12-29T10:10:38;12.00;90.30
7844;DHT22;3967;48.702;9.326;2022-12-29T10:21:42;12.00;90.80
7844;DHT22;3967;48.702;9.326;2022-12-29T10:24:11;12.00;90.80
7844;DHT22;3967;48.702;9.326;2022-12-29T10:26:43;12.00;90.80
7844;DHT22;3967;48.702;9.326;2022-12-29T10:29:24;12.00;90.90
7844;DHT22;3967;48.702;9.326;2022-12-29T10:34:58;12.10;90.90
7844;DHT22;3967;48.702;9.326;2022-12-29T10:42:50;12.20;90.80
7844;DHT22;3967;48.702;9.326;2022-12-29T10:45:19;12.30;90.80
7844;DHT22;3967;48.702;9.326;2022-12-29T10:50:59;12.30;90.70
7844;DHT22;3967;48.702;9.326;2022-12-29T10:53:35;12.20;90.60
7844;DHT22;3967;48.702;9.326;2022-12-29T10:56:14;12.10;90.70
7844;DHT22;3967;48.702;9.326;2022-12-29T10:58:43;12.20;90.70
7844;DHT22;3967;48.702;9.326;2022-12-29T11:01:16;12.20;90.80
7844;DHT22;3967;48.702;9.326;2022-12-29T11:06:26;12.10;90.70
7844;DHT22;3967;48.702;9.326;2022-12-29T11:09:09;12.00;90.80
7844;DHT22;3967;48.702;9.326;2022-12-29T11:11:37;12.00;91.00
7844;DHT22;3967;48.702;9.326;2022-12-29T11:14:18;12.10;90.90
7844;DHT22;3967;48.702;9.326;2022-12-29T11:17:00;12.20;90.90
7844;DHT22;3967;48.702;9.326;2022-12-29T11:19:32;12.20;91.00
7844;DHT22;3967;48.702;9.326;2022-12-29T11:22:22;12.30;91.00
7844;DHT22;3967;48.702;9.326;2022-12-29T11:24:52;12.40;91.10
7844;DHT22;3967;48.702;9.326;2022-12-29T11:27:26;12.40;90.90
7844;DHT22;3967;48.702;9.326;2022-12-29T11:29:53;12.40;91.00
7844;DHT22;3967;48.702;9.326;2022-12-29T11:32:22;12.50;91.20
7844;DHT22;3967;48.702;9.326;2022-12-29T11:34:54;12.50;91.30
7844;DHT22;3967;48.702;9.326;2022-12-29T11:37:29;12.50;91.30
7844;DHT22;3967;48.702;9.326;2022-12-29T11:40:06;12.40;91.40
7844;DHT22;3967;48.702;9.326;2022-12-29T11:42:40;12.30;91.70
7844;DHT22;3967;48.702;9.326;2022-12-29T11:48:14;12.30;91.80
7844;DHT22;3967;48.702;9.326;2022-12-29T11:50:40;12.30;92.20
7844;DHT22;3967;48.702;9.326;2022-12-29T11:53:27;12.30;92.40
7844;DHT22;3967;48.702;9.326;2022-12-29T11:56:00;12.40;92.90
7844;DHT22;3967;48.702;9.326;2022-12-29T11:58:37;12.50;92.90
7844;DHT22;3967;48.702;9.326;2022-12-29T12:01:14;12.50;92.80
7844;DHT22;3967;48.702;9.326;2022-12-29T12:03:52;12.30;93.10
7844;DHT22;3967;48.702;9.326;2022-12-29T12:06:23;12.20;93.40
7844;DHT22;3967;48.702;9.326;2022-12-29T12:09:14;12.20;93.80
7844;DHT22;3967;48.702;9.326;2022-12-29T12:11:43;12.20;93.80
7844;DHT22;3967;48.702;9.326;2022-12-29T12:14:26;12.30;94.10
7844;DHT22;3967;48.702;9.326;2022-12-29T12:17:02;12.30;94.20
7844;DHT22;3967;48.702;9.326;2022-12-29T12:19:38;12.20;94.20
7844;DHT22;3967;48.702;9.326;2022-12-29T12:24:53;12.20;94.50
7844;DHT22;3967;48.702;9.326;2022-12-29T12:27:39;12.30;94.60
7844;DHT22;3967;48.702;9.326;2022-12-29T12:30:21;12.20;95.00
7844;DHT22;3967;48.702;9.326;2022-12-29T12:35:44;12.20;96.60
7844;DHT22;3967;48.702;9.326;2022-12-29T12:41:13;12.30;98.20
7844;DHT22;3967;48.702;9.326;2022-12-29T12:46:59;12.30;99.10
7844;DHT22;3967;48.702;9.326;2022-12-29T13:00:43;12.30;99.90
7844;DHT22;3967;48.702;9.326;2022-12-29T13:14:57;12.50;98.90
7844;DHT22;3967;48.702;9.326;2022-12-29T13:20:24;12.30;98.80
7844;DHT22;3967;48.702;9.326;2022-12-29T13:31:13;12.30;98.50
7844;DHT22;3967;48.702;9.326;2022-12-29T13:36:45;12.20;98.10
7844;DHT22;3967;48.702;9.326;2022-12-29T13:39:21;12.20;97.80
7844;DHT22;3967;48.702;9.326;2022-12-29T13:41:52;12.20;98.20
7844;DHT22;3967;48.702;9.326;2022-12-29T13:44:28;12.30;98.40
7844;DHT22;3967;48.702;9.326;2022-12-29T13:49:57;12.10;99.80
7844;DHT22;3967;48.702;9.326;2022-12-29T14:00:46;11.90;99.90
7844;DHT22;3967;48.702;9.326;2022-12-29T14:06:14;12.10;99.90
7844;DHT22;3967;48.702;9.326;2022-12-29T14:08:42;12.20;99.80
7844;DHT22;3967;48.702;9.326;2022-12-29T14:11:11;12.10;99.90
7844;DHT22;3967;48.702;9.326;2022-12-29T14:13:40;12.10;99.90
7844;DHT22;3967;48.702;9.326;2022-12-29T14:18:55;12.20;99.60
7844;DHT22;3967;48.702;9.326;2022-12-29T14:21:25;12.20;99.30
7844;DHT22;3967;48.702;9.326;2022-12-29T14:26:54;12.40;98.60
7844;DHT22;3967;48.702;9.326;2022-12-29T14:31:52;12.20;98.60
7844;DHT22;3967;48.702;9.326;2022-12-29T14:37:00;12.30;98.30
7844;DHT22;3967;48.702;9.326;2022-12-29T14:42:19;12.20;98.50
7844;DHT22;3967;48.702;9.326;2022-12-29T14:44:56;12.30;98.30
7844;DHT22;3967;48.702;9.326;2022-12-29T14:47:38;12.30;97.90
7844;DHT22;3967;48.702;9.326;2022-12-29T14:52:54;12.20;97.80
7844;DHT22;3967;48.702;9.326;2022-12-29T14:55:41;12.10;97.60
7844;DHT22;3967;48.702;9.326;2022-12-29T15:00:52;12.10;98.00
7844;DHT22;3967;48.702;9.326;2022-12-29T15:03:24;12.10;97.80
7844;DHT22;3967;48.702;9.326;2022-12-29T15:05:55;12.00;97.50
7844;DHT22;3967;48.702;9.326;2022-12-29T15:08:29;12.10;97.80
7844;DHT22;3967;48.702;9.326;2022-12-29T15:11:09;12.00;97.60
7844;DHT22;3967;48.702;9.326;2022-12-29T15:13:39;12.00;97.50
7844;DHT22;3967;48.702;9.326;2022-12-29T15:16:29;11.90;97.60
7844;DHT22;3967;48.702;9.326;2022-12-29T15:18:56;11.90;97.90
7844;DHT22;3967;48.702;9.326;2022-12-29T15:21:35;11.90;97.40
7844;DHT22;3967;48.702;9.326;2022-12-29T15:24:05;11.80;97.50
7844;DHT22;3967;48.702;9.326;2022-12-29T15:26:40;11.70;97.60
7844;DHT22;3967;48.702;9.326;2022-12-29T15:29:31;11.80;97.50
7844;DHT22;3967;48.702;9.326;2022-12-29T15:32:01;11.70;97.30
7844;DHT22;3967;48.702;9.326;2022-12-29T15:34:31;11.70;97.30
7844;DHT22;3967;48.702;9.326;2022-12-29T15:36:57;11.70;97.30
7844;DHT22;3967;48.702;9.326;2022-12-29T15:39:30;11.60;97.40
7844;DHT22;3967;48.702;9.326;2022-12-29T15:42:16;11.60;97.30
7844;DHT22;3967;48.702;9.326;2022-12-29T15:44:47;11.60;97.20
7844;DHT22;3967;48.702;9.326;2022-12-29T15:47:25;11.60;97.10
7844;DHT22;3967;48.702;9.326;2022-12-29T15:52:44;11.70;96.80
7844;DHT22;3967;48.702;9.326;2022-12-29T15:55:20;11.60;96.60
7844;DHT22;3967;48.702;9.326;2022-12-29T15:57:48;11.60;96.30
7844;DHT22;3967;48.702;9.326;2022-12-29T16:00:27;11.70;96.20
7844;DHT22;3967;48.702;9.326;2022-12-29T16:02:55;11.70;95.80
7844;DHT22;3967;48.702;9.326;2022-12-29T16:05:23;11.70;95.80
7844;DHT22;3967;48.702;9.326;2022-12-29T16:08:01;11.70;95.60
7844;DHT22;3967;48.702;9.326;2022-12-29T16:10:36;11.70;95.40
7844;DHT22;3967;48.702;9.326;2022-12-29T16:15:38;11.80;95.30
7844;DHT22;3967;48.702;9.326;2022-12-29T16:18:05;11.80;95.00
7844;DHT22;3967;48.702;9.326;2022-12-29T16:20:40;11.80;94.90
7844;DHT22;3967;48.702;9.326;2022-12-29T16:23:26;11.80;95.00
7844;DHT22;3967;48.702;9.326;2022-12-29T16:25:55;11.80;95.00
7844;DHT22;3967;48.702;9.326;2022-12-29T16:28:30;11.90;94.90
7844;DHT22;3967;48.702;9.326;2022-12-29T16:31:05;12.00;94.60
7844;DHT22;3967;48.702;9.326;2022-12-29T16:33:53;11.90;94.80
7844;DHT22;3967;48.702;9.326;2022-12-29T16:36:27;11.90;94.80
7844;DHT22;3967;48.702;9.326;2022-12-29T16:41:53;11.90;95.20
7844;DHT22;3967;48.702;9.326;2022-12-29T16:44:29;11.70;97.00
7844;DHT22;3967;48.702;9.326;2022-12-29T16:49:41;11.50;99.50
7844;DHT22;3967;48.702;9.326;2022-12-29T16:52:23;11.30;99.90
7844;DHT22;3967;48.702;9.326;2022-12-29T16:54:53;11.30;99.90
7844;DHT22;3967;48.702;9.326;2022-12-29T16:57:32;11.20;99.90
7844;DHT22;3967;48.702;9.326;2022-12-29T17:00:07;11.10;99.90
7844;DHT22;3967;48.702;9.326;2022-12-29T17:02:43;11.10;99.90
7844;DHT22;3967;48.702;9.326;2022-12-29T17:05:16;11.20;99.90
7844;DHT22;3967;48.702;9.326;2022-12-29T17:07:43;11.20;99.90
7844;DHT22;3967;48.702;9.326;2022-12-29T17:10:11;11.20;99.90
7844;DHT22;3967;48.702;9.326;2022-12-29T17:12:39;11.20;99.90
7844;DHT22;3967;48.702;9.326;2022-12-29T17:17:41;11.30;99.90
7844;DHT22;3967;48.702;9.326;2022-12-29T17:20:21;11.30;99.90
7844;DHT22;3967;48.702;9.326;2022-12-29T17:22:50;11.20;99.90
7844;DHT22;3967;48.702;9.326;2022-12-29T17:25:21;11.10;99.90
7844;DHT22;3967;48.702;9.326;2022-12-29T17:27:55;11.10;99.90
7844;DHT22;3967;48.702;9.326;2022-12-29T17:30:24;11.20;99.90
7844;DHT22;3967;48.702;9.326;2022-12-29T17:33:06;11.10;99.90
7844;DHT22;3967;48.702;9.326;2022-12-29T17:35:36;11.10;99.90
7844;DHT22;3967;48.702;9.326;2022-12-29T17:38:30;11.00;99.90
7844;DHT22;3967;48.702;9.326;2022-12-29T17:40:58;10.90;99.90
7844;DHT22;3967;48.702;9.326;2022-12-29T17:43:25;10.90;99.90
7844;DHT22;3967;48.702;9.326;2022-12-29T17:46:01;10.80;99.90
7844;DHT22;3967;48.702;9.326;2022-12-29T17:48:28;10.80;99.90
7844;DHT22;3967;48.702;9.326;2022-12-29T17:50:56;10.70;99.90
7844;DHT22;3967;48.702;9.326;2022-12-29T17:53:26;10.70;99.90
7844;DHT22;3967;48.702;9.326;2022-12-29T17:55:53;10.60;99.90
7844;DHT22;3967;48.702;9.326;2022-12-29T17:58:23;10.60;99.90
7844;DHT22;3967;48.702;9.326;2022-12-29T18:00:55;10.60;99.90
7844;DHT22;3967;48.702;9.326;2022-12-29T18:03:43;10.60;99.90
7844;DHT22;3967;48.702;9.326;2022-12-29T18:06:10;10.70;99.90
7844;DHT22;3967;48.702;9.326;2022-12-29T18:08:39;10.60;99.90
7844;DHT22;3967;48.702;9.326;2022-12-29T18:11:26;10.60;99.90
7844;DHT22;3967;48.702;9.326;2022-12-29T18:13:53;10.50;99.90
7844;DHT22;3967;48.702;9.326;2022-12-29T18:16:21;10.50;99.90
7844;DHT22;3967;48.702;9.326;2022-12-29T18:18:49;10.50;99.90
7844;DHT22;3967;48.702;9.326;2022-12-29T18:21:17;10.40;99.90
7844;DHT22;3967;48.702;9.326;2022-12-29T18:23:45;10.40;99.90
7844;DHT22;3967;48.702;9.326;2022-12-29T18:26:13;10.30;99.90
7844;DHT22;3967;48.702;9.326;2022-12-29T18:28:46;10.30;99.90
7844;DHT22;3967;48.702;9.326;2022-12-29T18:31:25;10.30;99.90
7844;DHT22;3967;48.702;9.326;2022-12-29T18:33:54;10.10;99.90
7844;DHT22;3967;48.702;9.326;2022-12-29T18:36:22;10.10;99.90
7844;DHT22;3967;48.702;9.326;2022-12-29T18:38:49;9.90;99.90
7844;DHT22;3967;48.702;9.326;2022-12-29T18:41:25;9.80;99.90
7844;DHT22;3967;48.702;9.326;2022-12-29T18:43:56;9.80;99.90
7844;DHT22;3967;48.702;9.326;2022-12-29T18:46:23;9.70;99.90
7844;DHT22;3967;48.702;9.326;2022-12-29T18:48:51;9.70;99.90
7844;DHT22;3967;48.702;9.326;2022-12-29T18:51:21;9.70;99.90
7844;DHT22;3967;48.702;9.326;2022-12-29T18:53:49;9.70;99.90
7844;DHT22;3967;48.702;9.326;2022-12-29T18:56:18;9.70;99.90
7844;DHT22;3967;48.702;9.326;2022-12-29T18:58:46;9.60;99.90
7844;DHT22;3967;48.702;9.326;2022-12-29T19:01:19;9.60;99.90
7844;DHT22;3967;48.702;9.326;2022-12-29T19:03:46;9.60;99.90
7844;DHT22;3967;48.702;9.326;2022-12-29T19:06:13;9.60;99.90
7844;DHT22;3967;48.702;9.326;2022-12-29T19:08:40;9.70;99.90
7844;DHT22;3967;48.702;9.326;2022-12-29T19:11:07;9.80;99.90
7844;DHT22;3967;48.702;9.326;2022-12-29T19:13:34;9.80;99.90
7844;DHT22;3967;48.702;9.326;2022-12-29T19:16:01;9.80;99.90